createdAt,value
2018-07-25T00:00:33.355Z,12.27
2018-07-25T00:03:01.205Z,12.53
2018-07-25T00:05:29.059Z,11.47
2018-07-25T00:07:57.257Z,12.90
2018-07-25T00:10:30.364Z,12.20
2018-07-25T00:12:58.208Z,12.20
2018-07-25T00:15:26.024Z,11.63
2018-07-25T00:17:53.879Z,11.37
2018-07-25T00:20:21.816Z,12.40
2018-07-25T00:22:49.727Z,11.93
2018-07-25T00:25:17.646Z,10.87
2018-07-25T00:27:45.650Z,12.07
2018-07-25T00:30:13.545Z,11.40
2018-07-25T00:32:41.328Z,11.83
2018-07-25T00:35:09.495Z,11.63
2018-07-25T00:37:37.292Z,11.27
2018-07-25T00:40:05.201Z,11.73
2018-07-25T00:42:33.049Z,12.00
2018-07-25T00:45:01.066Z,10.87
2018-07-25T00:47:28.878Z,11.43
2018-07-25T00:49:56.850Z,11.43
2018-07-25T00:52:24.761Z,11.50
2018-07-25T00:54:56.163Z,12.43
2018-07-25T00:57:24.076Z,12.27
2018-07-25T00:59:52.014Z,12.47
2018-07-25T01:02:20.490Z,11.07
2018-07-25T01:04:48.280Z,11.47
2018-07-25T01:07:16.242Z,12.07
2018-07-25T01:09:44.127Z,11.73
2018-07-25T01:12:11.934Z,12.40
2018-07-25T01:14:39.947Z,11.77
2018-07-25T01:17:08.125Z,11.70
2018-07-25T01:19:36.048Z,12.43
2018-07-25T01:22:03.939Z,13.00
2018-07-25T01:24:32.414Z,11.50
2018-07-25T01:27:01.467Z,12.53
2018-07-25T01:29:29.287Z,11.67
2018-07-25T01:31:57.338Z,12.57
2018-07-25T01:34:25.238Z,11.43
2018-07-25T01:36:53.084Z,12.33
2018-07-25T01:39:21.639Z,12.23
2018-07-25T01:41:49.445Z,11.70
2018-07-25T01:44:17.376Z,12.33
2018-07-25T01:46:45.850Z,11.87
2018-07-25T01:49:13.700Z,11.47
2018-07-25T01:51:41.603Z,11.77
2018-07-25T01:54:10.844Z,12.80
2018-07-25T01:56:38.743Z,12.33
2018-07-25T01:59:06.553Z,12.90
2018-07-25T02:01:34.553Z,12.03
2018-07-25T02:04:02.448Z,12.00
2018-07-25T02:06:30.244Z,12.57
2018-07-25T02:08:58.246Z,13.23
2018-07-25T02:11:26.003Z,12.70
2018-07-25T02:13:53.789Z,11.37
2018-07-25T02:16:22.240Z,11.57
2018-07-25T02:18:50.116Z,12.03
2018-07-25T02:21:17.982Z,11.90
2018-07-25T02:23:46.171Z,11.73
2018-07-25T02:26:13.968Z,12.93
2018-07-25T02:28:41.830Z,11.67
2018-07-25T02:31:09.977Z,14.30
2018-07-25T02:33:45.274Z,12.37
2018-07-25T02:36:13.110Z,12.60
2018-07-25T02:38:40.914Z,12.20
2018-07-25T02:41:08.726Z,12.80
2018-07-25T02:43:36.624Z,11.60
2018-07-25T02:46:04.895Z,12.53
2018-07-25T02:48:32.757Z,12.80
2018-07-25T02:51:01.721Z,12.73
2018-07-25T02:53:29.547Z,12.53
2018-07-25T02:55:57.333Z,11.73
2018-07-25T02:58:25.219Z,11.90
2018-07-25T03:00:53.055Z,12.03
2018-07-25T03:03:20.861Z,11.03
2018-07-25T03:05:48.993Z,12.03
2018-07-25T03:08:16.816Z,11.33
2018-07-25T03:10:49.941Z,12.73
2018-07-25T03:13:17.798Z,12.60
2018-07-25T03:15:45.930Z,11.87
2018-07-25T03:18:13.885Z,12.10
2018-07-25T03:20:41.748Z,12.50
2018-07-25T03:23:09.602Z,11.83
2018-07-25T03:25:37.537Z,12.03
2018-07-25T03:28:05.435Z,11.33
2018-07-25T03:30:33.190Z,11.87
2018-07-25T03:33:01.183Z,11.70
2018-07-25T03:35:29.108Z,12.37
2018-07-25T03:37:57.252Z,11.87
2018-07-25T03:40:25.527Z,11.70
2018-07-25T03:42:53.353Z,11.87
2018-07-25T03:45:21.304Z,10.70
2018-07-25T03:47:49.639Z,11.27
2018-07-25T03:50:17.592Z,11.63
2018-07-25T03:52:45.535Z,11.43
2018-07-25T03:55:13.468Z,11.07
2018-07-25T03:57:41.438Z,10.90
2018-07-25T04:00:10.165Z,10.90
2018-07-25T04:02:38.405Z,10.73
2018-07-25T04:05:07.084Z,10.60
2018-07-25T04:07:34.951Z,11.50
2018-07-25T04:10:04.218Z,11.57
2018-07-25T04:12:32.051Z,10.87
2018-07-25T04:15:00.057Z,11.17
2018-07-25T04:17:32.487Z,12.00
2018-07-25T04:20:00.436Z,10.57
2018-07-25T04:22:28.304Z,11.53
2018-07-25T04:24:56.307Z,12.10
2018-07-25T04:27:24.203Z,11.47
2018-07-25T04:29:52.116Z,10.87
2018-07-25T04:32:20.379Z,10.53
2018-07-25T04:34:48.270Z,11.38
2018-07-25T04:37:16.171Z,10.58
2018-07-25T04:39:45.092Z,10.98
2018-07-25T04:42:13.032Z,11.15
2018-07-25T04:44:40.839Z,10.20
2018-07-25T04:47:08.754Z,10.32
2018-07-25T04:49:36.674Z,10.60
2018-07-25T04:52:04.473Z,10.20
2018-07-25T04:54:32.446Z,11.38
2018-07-25T04:57:00.395Z,10.43
2018-07-25T04:59:28.163Z,10.03
2018-07-25T05:01:56.178Z,10.53
2018-07-25T05:04:24.556Z,11.18
2018-07-25T05:06:52.344Z,10.40
2018-07-25T05:09:20.262Z,10.78
2018-07-25T05:11:49.126Z,10.28
2018-07-25T05:14:16.995Z,9.68
2018-07-25T05:16:44.964Z,10.08
2018-07-25T05:19:12.948Z,10.88
2018-07-25T05:21:41.293Z,10.23
2018-07-25T05:24:09.200Z,10.25
2018-07-25T05:26:38.910Z,11.10
2018-07-25T05:29:06.870Z,10.63
2018-07-25T05:31:34.853Z,9.83
2018-07-25T05:34:02.830Z,10.53
2018-07-25T05:36:31.006Z,10.75
2018-07-25T05:38:59.213Z,9.73
2018-07-25T05:41:27.084Z,10.08
2018-07-25T05:43:55.071Z,9.13
2018-07-25T05:46:28.012Z,9.85
2018-07-25T05:48:55.901Z,9.60
2018-07-25T05:51:24.058Z,10.05
2018-07-25T05:53:52.181Z,9.75
2018-07-25T05:56:20.034Z,9.85
2018-07-25T05:58:48.135Z,9.60
2018-07-25T06:01:15.965Z,10.25
2018-07-25T06:03:43.828Z,9.45
2018-07-25T06:06:11.832Z,10.53
2018-07-25T06:08:39.870Z,9.88
2018-07-25T06:11:07.887Z,10.13
2018-07-25T06:13:36.732Z,9.20
2018-07-25T06:16:05.136Z,10.78
2018-07-25T06:18:32.975Z,11.20
2018-07-25T06:21:01.294Z,9.95
2018-07-25T06:23:29.181Z,9.33
2018-07-25T06:25:57.135Z,8.78
2018-07-25T06:28:26.508Z,8.70
2018-07-25T06:30:54.344Z,8.93
2018-07-25T06:33:22.321Z,8.93
2018-07-25T06:35:50.782Z,8.33
2018-07-25T06:38:18.752Z,8.00
2018-07-25T06:40:46.653Z,8.00
2018-07-25T06:43:14.672Z,7.47
2018-07-25T06:45:42.626Z,7.78
2018-07-25T06:48:10.931Z,7.85
2018-07-25T06:50:39.108Z,7.60
2018-07-25T06:53:14.754Z,7.15
2018-07-25T06:55:42.638Z,6.60
2018-07-25T06:58:10.636Z,7.72
2018-07-25T07:00:38.577Z,7.22
2018-07-25T07:03:06.461Z,7.78
2018-07-25T07:05:34.243Z,7.05
2018-07-25T07:08:02.172Z,7.08
2018-07-25T07:10:30.147Z,7.37
2018-07-25T07:12:58.095Z,7.40
2018-07-25T07:15:25.973Z,7.50
2018-07-25T07:17:54.284Z,7.40
2018-07-25T07:20:22.292Z,7.65
2018-07-25T07:22:50.268Z,6.55
2018-07-25T07:25:18.312Z,6.85
2018-07-25T07:27:46.134Z,7.17
2018-07-25T07:30:14.003Z,8.23
2018-07-25T07:32:41.900Z,6.80
2018-07-25T07:35:09.877Z,5.65
2018-07-25T07:37:37.827Z,6.12
2018-07-25T07:40:06.271Z,6.08
2018-07-25T07:42:34.203Z,5.35
2018-07-25T07:45:02.176Z,7.30
2018-07-25T07:47:30.478Z,5.78
2018-07-25T07:49:58.335Z,5.53
2018-07-25T07:52:26.176Z,6.17
2018-07-25T07:54:54.329Z,6.08
2018-07-25T07:57:22.195Z,6.05
2018-07-25T07:59:50.098Z,6.40
2018-07-25T08:02:18.358Z,6.42
2018-07-25T08:04:46.223Z,6.33
2018-07-25T08:07:14.089Z,6.47
2018-07-25T08:09:42.003Z,6.03
2018-07-25T08:12:09.772Z,6.40
2018-07-25T08:14:38.094Z,7.08
2018-07-25T08:17:07.856Z,6.22
2018-07-25T08:19:36.514Z,5.95
2018-07-25T08:22:04.556Z,6.00
2018-07-25T08:24:32.475Z,6.00
2018-07-25T08:27:00.526Z,5.80
2018-07-25T08:29:28.493Z,6.35
2018-07-25T08:31:56.529Z,5.70
2018-07-25T08:34:24.403Z,7.05
2018-07-25T08:36:52.327Z,6.95
2018-07-25T08:39:21.047Z,6.55
2018-07-25T08:41:49.081Z,6.72
2018-07-25T08:44:16.891Z,6.30
2018-07-25T08:46:45.238Z,7.15
2018-07-25T08:49:13.156Z,8.05
2018-07-25T08:51:41.016Z,7.72
2018-07-25T08:54:08.921Z,7.40
2018-07-25T08:56:36.871Z,7.28
2018-07-25T08:59:04.902Z,7.50
2018-07-25T09:01:33.190Z,7.22
2018-07-25T09:04:01.056Z,7.28
2018-07-25T09:06:29.445Z,7.90
2018-07-25T09:08:57.430Z,7.53
2018-07-25T09:11:25.958Z,7.10
2018-07-25T09:13:53.979Z,6.53
2018-07-25T09:16:22.119Z,6.78
2018-07-25T09:18:50.831Z,6.97
2018-07-25T09:21:18.682Z,6.92
2018-07-25T09:23:47.992Z,7.25
2018-07-25T09:26:15.840Z,7.10
2018-07-25T09:28:43.716Z,6.17
2018-07-25T09:31:11.815Z,6.67
2018-07-25T09:33:39.654Z,6.15
2018-07-25T09:36:07.605Z,6.17
2018-07-25T09:38:35.648Z,6.40
2018-07-25T09:41:03.764Z,6.47
2018-07-25T09:43:31.695Z,5.80
2018-07-25T09:45:59.935Z,5.65
2018-07-25T09:48:27.773Z,5.47
2018-07-25T09:50:55.603Z,5.42
2018-07-25T09:53:23.869Z,5.70
2018-07-25T09:55:54.009Z,4.80
2018-07-25T09:58:21.943Z,5.20
2018-07-25T10:00:51.254Z,5.03
2018-07-25T10:03:19.736Z,5.58
2018-07-25T10:05:47.784Z,5.22
2018-07-25T10:08:17.114Z,5.62
2018-07-25T10:10:45.412Z,4.75
2018-07-25T10:13:13.601Z,5.20
2018-07-25T10:15:41.572Z,5.17
2018-07-25T10:18:09.620Z,4.00
2018-07-25T10:20:37.600Z,4.30
2018-07-25T10:23:05.496Z,3.35
2018-07-25T10:25:33.398Z,3.25
2018-07-25T10:28:01.381Z,3.50
2018-07-25T10:30:29.435Z,3.00
2018-07-25T10:32:57.523Z,3.22
2018-07-25T10:35:25.319Z,2.47
2018-07-25T10:37:53.275Z,3.25
2018-07-25T10:40:21.199Z,3.37
2018-07-25T10:42:49.045Z,2.92
2018-07-25T10:45:16.958Z,3.33
2018-07-25T10:47:44.801Z,3.72
2018-07-25T10:50:12.776Z,3.35
2018-07-25T10:52:41.505Z,2.90
2018-07-25T10:55:09.260Z,3.08
2018-07-25T10:57:37.162Z,3.30
2018-07-25T11:00:06.432Z,2.87
2018-07-25T11:02:34.468Z,3.27
2018-07-25T11:05:02.374Z,3.05
2018-07-25T11:07:30.709Z,3.20
2018-07-25T11:09:58.640Z,3.08
2018-07-25T11:12:26.543Z,3.05
2018-07-25T11:14:54.596Z,3.10
2018-07-25T11:17:23.311Z,3.42
2018-07-25T11:19:51.106Z,3.80
2018-07-25T11:22:18.996Z,3.70
2018-07-25T11:24:46.859Z,3.50
2018-07-25T11:27:14.766Z,3.75
2018-07-25T11:29:42.805Z,3.75
2018-07-25T11:32:10.663Z,4.05
2018-07-25T11:34:38.528Z,3.80
2018-07-25T11:37:06.590Z,4.30
2018-07-25T11:39:34.496Z,4.00
2018-07-25T11:42:02.359Z,3.92
2018-07-25T11:44:30.218Z,3.77
2018-07-25T11:46:58.126Z,3.87
2018-07-25T11:49:25.932Z,3.30
2018-07-25T11:51:54.139Z,3.25
2018-07-25T11:54:21.980Z,3.90
2018-07-25T11:56:49.864Z,2.90
2018-07-25T11:59:17.971Z,3.00
2018-07-25T12:01:45.853Z,2.80
2018-07-25T12:04:13.756Z,3.52
2018-07-25T12:06:41.698Z,3.62
2018-07-25T12:09:10.894Z,3.75
2018-07-25T12:11:44.456Z,3.58
2018-07-25T12:14:13.440Z,3.47
2018-07-25T12:16:41.374Z,3.52
2018-07-25T12:19:09.748Z,4.33
2018-07-25T12:21:37.711Z,3.72
2018-07-25T12:24:05.704Z,4.08
2018-07-25T12:26:33.690Z,4.30
2018-07-25T12:29:02.693Z,3.87
2018-07-25T12:31:30.556Z,3.90
2018-07-25T12:33:58.554Z,4.00
2018-07-25T12:36:26.490Z,2.83
2018-07-25T12:38:54.425Z,3.08
2018-07-25T12:41:22.456Z,2.92
2018-07-25T12:43:51.357Z,3.15
2018-07-25T12:46:19.294Z,2.77
2018-07-25T12:48:47.417Z,3.10
2018-07-25T12:51:15.383Z,3.20
2018-07-25T12:53:43.429Z,3.40
2018-07-25T12:56:11.340Z,3.77
2018-07-25T12:58:40.162Z,3.17
2018-07-25T13:01:08.095Z,3.00
2018-07-25T13:03:36.496Z,2.00
2018-07-25T13:06:04.508Z,2.37
2018-07-25T13:08:32.453Z,1.67
2018-07-25T13:11:00.442Z,1.65
2018-07-25T13:13:28.258Z,1.62
2018-07-25T13:15:56.202Z,2.15
2018-07-25T13:18:24.380Z,2.35
2018-07-25T13:20:52.252Z,2.92
2018-07-25T13:23:20.217Z,2.90
2018-07-25T13:25:48.308Z,2.55
2018-07-25T13:28:16.200Z,3.10
2018-07-25T13:30:44.054Z,2.58
2018-07-25T13:33:12.349Z,2.30
2018-07-25T13:35:40.174Z,2.90
2018-07-25T13:38:08.135Z,3.02
2018-07-25T13:40:36.348Z,3.80
2018-07-25T13:43:04.196Z,3.08
2018-07-25T13:45:32.120Z,3.00
2018-07-25T13:48:00.209Z,3.60
2018-07-25T13:50:28.249Z,3.35
2018-07-25T13:52:56.110Z,2.55
2018-07-25T13:55:24.444Z,3.37
2018-07-25T13:57:53.307Z,2.50
2018-07-25T14:00:21.171Z,3.37
2018-07-25T14:02:49.196Z,2.90
2018-07-25T14:05:17.149Z,2.92
2018-07-25T14:07:46.194Z,3.67
2018-07-25T14:10:14.241Z,3.72
2018-07-25T14:12:42.179Z,3.00
2018-07-25T14:15:10.152Z,3.35
2018-07-25T14:17:38.800Z,3.20
2018-07-25T14:20:06.658Z,3.05
2018-07-25T14:22:34.628Z,3.08
2018-07-25T14:25:02.551Z,3.20
2018-07-25T14:27:30.360Z,3.75
2018-07-25T14:29:58.245Z,3.70
2018-07-25T14:32:26.477Z,2.47
2018-07-25T14:34:54.393Z,2.15
2018-07-25T14:37:22.245Z,2.80
2018-07-25T14:39:50.131Z,3.08
2018-07-25T14:42:18.045Z,3.45
2018-07-25T14:44:45.879Z,3.20
2018-07-25T14:47:13.801Z,2.85
2018-07-25T14:49:41.590Z,2.85
2018-07-25T14:52:09.658Z,2.80
2018-07-25T14:54:37.749Z,3.05
2018-07-25T14:57:05.720Z,3.10
2018-07-25T14:59:33.722Z,3.37
2018-07-25T15:02:01.783Z,3.45
2018-07-25T15:04:29.769Z,3.15
2018-07-25T15:06:57.715Z,2.77
2018-07-25T15:09:26.696Z,2.47
2018-07-25T15:11:54.589Z,3.20
2018-07-25T15:14:22.498Z,3.08
2018-07-25T15:16:50.494Z,2.37
2018-07-25T15:19:18.430Z,3.15
2018-07-25T15:21:46.208Z,2.75
2018-07-25T15:24:14.997Z,2.60
2018-07-25T15:26:42.781Z,2.72
2018-07-25T15:29:10.735Z,2.98
2018-07-25T15:31:38.692Z,2.45
2018-07-25T15:34:06.627Z,2.65
2018-07-25T15:36:41.320Z,2.90
2018-07-25T15:39:13.048Z,2.85
2018-07-25T15:41:41.655Z,3.40
2018-07-25T15:44:09.487Z,2.87
2018-07-25T15:46:37.431Z,2.75
2018-07-25T15:49:05.920Z,3.72
2018-07-25T15:51:34.019Z,3.40
2018-07-25T15:54:02.479Z,3.33
2018-07-25T15:56:30.998Z,2.92
2018-07-25T15:58:59.051Z,2.90
2018-07-25T16:01:27.058Z,2.55
2018-07-25T16:03:55.169Z,2.60
2018-07-25T16:06:23.431Z,3.00
2018-07-25T16:08:51.535Z,2.65
2018-07-25T16:11:19.489Z,2.72
2018-07-25T16:13:47.669Z,2.98
2018-07-25T16:16:15.840Z,2.92
2018-07-25T16:18:44.425Z,2.90
2018-07-25T16:21:12.449Z,2.40
2018-07-25T16:23:40.267Z,2.50
2018-07-25T16:26:08.277Z,2.58
2018-07-25T16:28:37.284Z,2.50
2018-07-25T16:31:06.293Z,2.45
2018-07-25T16:33:34.331Z,2.60
2018-07-25T16:36:02.203Z,2.30
2018-07-25T16:38:30.080Z,2.27
2018-07-25T16:40:58.359Z,2.60
2018-07-25T16:43:26.366Z,2.58
2018-07-25T16:45:54.457Z,2.50
2018-07-25T16:48:22.606Z,2.80
2018-07-25T16:50:50.424Z,2.85
2018-07-25T16:53:18.327Z,3.27
2018-07-25T16:55:46.243Z,3.52
2018-07-25T16:58:14.210Z,2.80
2018-07-25T17:00:42.181Z,2.77
2018-07-25T17:03:10.238Z,2.35
2018-07-25T17:05:38.310Z,5.37
2018-07-25T17:08:06.200Z,3.90
2018-07-25T17:10:34.364Z,3.75
2018-07-25T17:13:02.428Z,3.55
2018-07-25T17:15:30.299Z,4.12
2018-07-25T17:17:58.327Z,4.00
2018-07-25T17:20:26.249Z,4.22
2018-07-25T17:22:54.437Z,3.25
2018-07-25T17:25:22.658Z,3.42
2018-07-25T17:27:50.450Z,3.65
2018-07-25T17:30:18.376Z,3.72
2018-07-25T17:32:46.271Z,4.12
2018-07-25T17:35:14.167Z,4.58
2018-07-25T17:37:42.139Z,3.92
2018-07-25T17:40:10.091Z,4.17
2018-07-25T17:42:37.944Z,4.15
2018-07-25T17:45:08.054Z,21.27
2018-07-25T17:47:36.059Z,14.18
2018-07-25T17:50:05.216Z,7.83
2018-07-25T17:52:33.049Z,6.15
2018-07-25T17:55:00.932Z,5.30
2018-07-25T17:57:28.924Z,6.20
2018-07-25T17:59:56.866Z,4.92
2018-07-25T18:02:24.940Z,4.05
2018-07-25T18:04:52.766Z,4.53
2018-07-25T18:07:20.783Z,8.68
2018-07-25T18:09:49.071Z,4.70
2018-07-25T18:12:16.945Z,4.67
2018-07-25T18:14:44.786Z,4.33
2018-07-25T18:17:12.663Z,3.62
2018-07-25T18:19:40.591Z,4.08
2018-07-25T18:22:08.603Z,4.33
2018-07-25T18:24:37.639Z,3.00
2018-07-25T18:27:05.682Z,3.40
2018-07-25T18:29:33.715Z,2.83
2018-07-25T18:32:02.079Z,3.65
2018-07-25T18:34:29.904Z,3.27
2018-07-25T18:36:57.841Z,3.67
2018-07-25T18:39:26.074Z,3.15
2018-07-25T18:41:54.002Z,3.47
2018-07-25T18:44:22.246Z,3.60
2018-07-25T18:46:50.639Z,3.35
2018-07-25T18:49:18.552Z,3.30
2018-07-25T18:51:46.474Z,3.80
2018-07-25T18:56:52.822Z,4.00
2018-07-25T18:59:21.120Z,3.92
2018-07-25T19:01:49.094Z,3.95
2018-07-25T19:04:17.064Z,2.90
2018-07-25T19:06:45.167Z,3.10
2018-07-25T19:09:15.027Z,2.90
2018-07-25T19:11:43.093Z,2.30
2018-07-25T19:14:16.437Z,2.50
2018-07-25T19:16:44.370Z,3.20
2018-07-25T19:19:12.258Z,2.67
2018-07-25T19:21:40.404Z,1.92
2018-07-25T19:24:08.223Z,2.62
2018-07-25T19:26:36.105Z,3.00
2018-07-25T19:29:04.204Z,3.45
2018-07-25T19:31:32.087Z,3.60
2018-07-25T19:33:59.996Z,3.22
2018-07-25T19:36:28.997Z,3.15
2018-07-25T19:38:56.769Z,3.47
2018-07-25T19:41:24.764Z,3.20
2018-07-25T19:43:53.065Z,3.15
2018-07-25T19:46:20.823Z,4.15
2018-07-25T19:48:48.600Z,3.80
2018-07-25T19:51:17.022Z,3.17
2018-07-25T19:53:45.062Z,3.60
2018-07-25T19:56:12.840Z,3.70
2018-07-25T19:58:40.699Z,3.83
2018-07-25T20:01:08.705Z,4.30
2018-07-25T20:03:36.461Z,3.75
2018-07-25T20:06:05.292Z,4.08
2018-07-25T20:08:33.231Z,4.62
2018-07-25T20:11:01.127Z,4.25
2018-07-25T20:13:31.208Z,4.12
2018-07-25T20:16:00.272Z,4.70
2018-07-25T20:18:29.198Z,4.55
2018-07-25T20:20:57.777Z,4.92
2018-07-25T20:23:26.606Z,5.12
2018-07-25T20:25:54.552Z,5.33
2018-07-25T20:28:22.745Z,5.83
2018-07-25T20:30:50.568Z,5.58
2018-07-25T20:33:18.390Z,5.47
2018-07-25T20:35:46.314Z,5.58
2018-07-25T20:38:14.196Z,4.87
2018-07-25T20:40:42.142Z,4.85
2018-07-25T20:43:10.145Z,5.03
2018-07-25T20:45:37.865Z,4.90
2018-07-25T20:48:05.836Z,6.00
2018-07-25T20:50:33.983Z,5.60
2018-07-25T20:53:01.863Z,5.70
2018-07-25T20:55:29.605Z,5.53
2018-07-25T20:57:57.614Z,5.60
2018-07-25T21:00:30.991Z,5.30
2018-07-25T21:02:59.471Z,5.10
2018-07-25T21:05:27.339Z,5.00
2018-07-25T21:07:55.282Z,5.03
2018-07-25T21:10:23.487Z,5.07
2018-07-25T21:12:51.368Z,5.90
2018-07-25T21:15:19.281Z,4.83
2018-07-25T21:17:47.656Z,4.10
2018-07-25T21:20:15.596Z,5.10
2018-07-25T21:22:43.547Z,4.62
2018-07-25T21:25:11.412Z,4.20
2018-07-25T21:27:39.305Z,4.13
2018-07-25T21:30:07.139Z,4.12
2018-07-25T21:32:35.272Z,4.13
2018-07-25T21:35:03.236Z,4.00
2018-07-25T21:37:31.175Z,4.42
2018-07-25T21:39:59.496Z,4.95
2018-07-25T21:42:27.462Z,5.40
2018-07-25T21:44:55.288Z,5.95
2018-07-25T21:47:23.164Z,5.28
2018-07-25T21:49:50.935Z,4.22
2018-07-25T21:52:18.721Z,6.40
2018-07-25T21:54:47.281Z,4.60
2018-07-25T21:57:15.187Z,4.47
2018-07-25T21:59:42.966Z,4.00
2018-07-25T22:02:11.214Z,4.35
2018-07-25T22:04:39.180Z,4.17
2018-07-25T22:07:07.034Z,4.45
2018-07-25T22:09:35.101Z,4.08
2018-07-25T22:12:03.044Z,4.20
2018-07-25T22:14:30.817Z,4.28
2018-07-25T22:16:59.859Z,4.70
2018-07-25T22:19:27.734Z,4.67
2018-07-25T22:21:55.628Z,4.27
2018-07-25T22:24:23.795Z,4.50
2018-07-25T22:26:51.635Z,4.83
2018-07-25T22:29:19.550Z,4.33
2018-07-25T22:31:47.689Z,4.67
2018-07-25T22:34:15.565Z,4.75
2018-07-25T22:36:43.415Z,5.10
2018-07-25T22:39:11.652Z,4.53
2018-07-25T22:41:39.510Z,5.50
2018-07-25T22:44:07.290Z,5.03
2018-07-25T22:46:35.677Z,5.13
2018-07-25T22:49:03.592Z,5.13
2018-07-25T22:51:31.454Z,5.10
2018-07-25T22:53:59.311Z,4.93
2018-07-25T22:56:27.131Z,5.37
2018-07-25T22:58:54.996Z,5.63
2018-07-25T23:01:23.299Z,5.43
2018-07-25T23:03:51.111Z,5.53
2018-07-25T23:06:18.918Z,5.33
2018-07-25T23:08:47.055Z,5.03
2018-07-25T23:11:14.998Z,5.03
2018-07-25T23:13:46.590Z,5.37
2018-07-25T23:16:15.851Z,5.67
2018-07-25T23:18:43.851Z,5.83
2018-07-25T23:21:12.122Z,5.97
2018-07-25T23:23:39.913Z,5.53
2018-07-25T23:26:07.706Z,6.40
2018-07-25T23:28:36.350Z,5.80
2018-07-25T23:31:04.126Z,6.13
2018-07-25T23:33:31.919Z,5.53
2018-07-25T23:36:00.169Z,6.13
2018-07-25T23:38:28.017Z,5.80
2018-07-25T23:40:55.843Z,5.90
2018-07-25T23:43:23.884Z,5.90
2018-07-25T23:45:51.818Z,5.90
2018-07-25T23:48:19.611Z,5.57
2018-07-25T23:50:47.499Z,5.83
2018-07-25T23:53:15.866Z,5.80
2018-07-25T23:55:43.683Z,5.73
2018-07-25T23:58:12.674Z,5.70
